Time,TemperatureF,DewpointF,PressureIn,WindDirection,WindDirectionDegrees,WindSpeedMPH,WindSpeedGustMPH,Humidity,HourlyPrecipIn,Conditions,Clouds,dailyrainin,SoftwareType,DateUTC
2013-10-26 00:02:00,47.1,34.0,30.35,NNW,328,3.0,5.0,60,0.00,,,0.00,weatherlink.com 1.10,2013-10-26 04:02:00,
2013-10-26 00:17:00,46.1,33.0,30.35,NW,317,3.0,5.0,61,0.00,,,0.00,weatherlink.com 1.10,2013-10-26 04:17:00,
2013-10-26 00:32:00,45.4,34.0,30.35,NW,317,2.0,4.0,64,0.00,,,0.00,weatherlink.com 1.10,2013-10-26 04:32:00,
2013-10-26 00:47:00,44.9,34.0,30.34,NW,313,3.0,5.0,65,0.00,,,0.00,weatherlink.com 1.10,2013-10-26 04:47:00,
2013-10-26 01:02:00,44.7,34.0,30.34,NW,311,4.0,5.0,66,0.00,,,0.00,weatherlink.com 1.10,2013-10-26 05:02:00,
2013-10-26 01:17:00,44.3,34.0,30.34,NW,312,4.0,5.0,67,0.00,,,0.00,weatherlink.com 1.10,2013-10-26 05:17:00,
2013-10-26 01:32:00,43.9,34.0,30.34,NW,323,3.0,5.0,67,0.00,,,0.00,weatherlink.com 1.10,2013-10-26 05:32:00,
2013-10-26 01:47:00,43.9,34.0,30.33,NW,318,4.0,6.0,67,0.00,,,0.00,weatherlink.com 1.10,2013-10-26 05:47:00,
2013-10-26 02:02:00,43.3,34.0,30.32,NW,307,2.0,4.0,69,0.00,,,0.00,weatherlink.com 1.10,2013-10-26 06:02:00,
2013-10-26 02:17:00,43.0,34.0,30.32,NNW,328,2.0,5.0,71,0.00,,,0.00,weatherlink.com 1.10,2013-10-26 06:17:00,
2013-10-26 02:32:00,44.5,34.0,30.31,NNW,340,2.0,6.0,68,0.00,,,0.00,weatherlink.com 1.10,2013-10-26 06:32:00,
2013-10-26 02:47:00,45.0,35.0,30.30,NW,313,2.0,5.0,67,0.00,,,0.00,weatherlink.com 1.10,2013-10-26 06:47:00,
2013-10-26 03:02:00,44.7,35.0,30.30,NNW,332,3.0,5.0,68,0.00,,,0.00,weatherlink.com 1.10,2013-10-26 07:02:00,
2013-10-26 03:17:00,43.6,34.0,30.30,NW,313,2.0,5.0,70,0.00,,,0.00,weatherlink.com 1.10,2013-10-26 07:17:00,
2013-10-26 03:32:00,42.3,35.0,30.29,NW,321,2.0,4.0,74,0.00,,,0.00,weatherlink.com 1.10,2013-10-26 07:32:00,
2013-10-26 03:47:00,42.4,35.0,30.29,WNW,302,2.0,6.0,76,0.00,,,0.00,weatherlink.com 1.10,2013-10-26 07:47:00,
2013-10-26 04:02:00,42.8,35.0,30.29,NW,314,2.0,5.0,75,0.00,,,0.00,weatherlink.com 1.10,2013-10-26 08:02:00,
2013-10-26 04:17:00,42.7,36.0,30.30,NW,314,5.0,6.0,77,0.00,,,0.00,weatherlink.com 1.10,2013-10-26 08:17:00,
2013-10-26 04:32:00,42.6,36.0,30.30,NNW,343,2.0,5.0,78,0.00,,,0.00,weatherlink.com 1.10,2013-10-26 08:32:00,
2013-10-26 04:47:00,42.6,36.0,30.29,NW,319,3.0,5.0,77,0.00,,,0.00,weatherlink.com 1.10,2013-10-26 08:47:00,
2013-10-26 05:02:00,42.8,36.0,30.29,NNW,330,2.0,5.0,76,0.00,,,0.00,weatherlink.com 1.10,2013-10-26 09:02:00,
2013-10-26 05:17:00,43.2,36.0,30.29,NNW,342,2.0,8.0,75,0.00,,,0.00,weatherlink.com 1.10,2013-10-26 09:17:00,
2013-10-26 05:32:00,43.5,36.0,30.29,NNW,345,3.0,4.0,75,0.00,,,0.00,weatherlink.com 1.10,2013-10-26 09:32:00,
2013-10-26 05:47:00,44.0,36.0,30.29,North,356,1.0,6.0,74,0.00,,,0.00,weatherlink.com 1.10,2013-10-26 09:47:00,
2013-10-26 06:02:00,43.9,36.0,30.29,NNW,333,2.0,5.0,74,0.00,,,0.00,weatherlink.com 1.10,2013-10-26 10:02:00,
2013-10-26 06:17:00,43.8,36.0,30.30,NNW,331,3.0,5.0,75,0.00,,,0.00,weatherlink.com 1.10,2013-10-26 10:17:00,
2013-10-26 06:32:00,43.9,36.0,30.29,NW,319,2.0,5.0,75,0.00,,,0.00,weatherlink.com 1.10,2013-10-26 10:32:00,
2013-10-26 06:47:00,44.3,37.0,30.29,NW,325,2.0,5.0,74,0.00,,,0.00,weatherlink.com 1.10,2013-10-26 10:47:00,
2013-10-26 07:02:00,43.8,36.0,30.30,NNW,342,1.0,5.0,75,0.00,,,0.00,weatherlink.com 1.10,2013-10-26 11:02:00,
2013-10-26 07:17:00,43.8,36.0,30.30,NNE,14,3.0,7.0,75,0.00,,,0.00,weatherlink.com 1.10,2013-10-26 11:17:00,
2013-10-26 07:32:00,43.7,36.0,30.30,NW,304,3.0,6.0,75,0.00,,,0.00,weatherlink.com 1.10,2013-10-26 11:32:00,
2013-10-26 07:47:00,43.9,37.0,30.30,NW,314,3.0,5.0,76,0.00,,,0.00,weatherlink.com 1.10,2013-10-26 11:47:00,
2013-10-26 08:02:00,44.7,38.0,30.31,NW,310,1.0,6.0,76,0.00,,,0.00,weatherlink.com 1.10,2013-10-26 12:02:00,
2013-10-26 08:18:00,45.5,38.0,30.31,NNW,327,3.0,5.0,75,0.00,,,0.00,weatherlink.com 1.10,2013-10-26 12:18:00,
2013-10-26 08:33:00,46.6,39.0,30.32,WNW,295,2.0,6.0,75,0.00,,,0.00,weatherlink.com 1.10,2013-10-26 12:33:00,
2013-10-26 08:48:00,47.7,40.0,30.31,NW,311,2.0,6.0,76,0.00,,,0.00,weatherlink.com 1.10,2013-10-26 12:48:00,
2013-10-26 09:03:00,49.0,41.0,30.31,NNE,13,3.0,8.0,74,0.00,,,0.00,weatherlink.com 1.10,2013-10-26 13:03:00,
2013-10-26 09:18:00,50.6,42.0,30.31,NNW,347,3.0,7.0,72,0.00,,,0.00,weatherlink.com 1.10,2013-10-26 13:18:00,
2013-10-26 09:33:00,52.2,40.0,30.31,NNE,29,3.0,9.0,64,0.00,,,0.00,weatherlink.com 1.10,2013-10-26 13:33:00,
2013-10-26 09:48:00,53.2,41.0,30.31,NE,44,7.0,10.0,64,0.00,,,0.00,weatherlink.com 1.10,2013-10-26 13:48:00,
2013-10-26 10:03:00,54.2,42.0,30.31,North,3,5.0,13.0,63,0.00,,,0.00,weatherlink.com 1.10,2013-10-26 14:03:00,
2013-10-26 10:18:00,54.7,41.0,30.30,NNW,335,5.0,11.0,60,0.00,,,0.00,weatherlink.com 1.10,2013-10-26 14:18:00,
2013-10-26 10:33:00,55.3,42.0,30.30,NNW,328,4.0,11.0,61,0.00,,,0.00,weatherlink.com 1.10,2013-10-26 14:33:00,
2013-10-26 10:48:00,56.0,42.0,30.30,NNW,333,2.0,11.0,60,0.00,,,0.00,weatherlink.com 1.10,2013-10-26 14:48:00,
2013-10-26 11:03:00,56.3,41.0,30.30,North,349,7.0,14.0,57,0.00,,,0.00,weatherlink.com 1.10,2013-10-26 15:03:00,
2013-10-26 11:18:00,56.6,42.0,30.29,NE,46,4.0,13.0,58,0.00,,,0.00,weatherlink.com 1.10,2013-10-26 15:18:00,
2013-10-26 11:33:00,57.0,42.0,30.28,NE,39,2.0,12.0,57,0.00,,,0.00,weatherlink.com 1.10,2013-10-26 15:33:00,
2013-10-26 11:48:00,57.6,42.0,30.28,North,6,6.0,9.0,56,0.00,,,0.00,weatherlink.com 1.10,2013-10-26 15:48:00,
2013-10-26 12:03:00,57.9,42.0,30.27,NNE,13,3.0,11.0,55,0.00,,,0.00,weatherlink.com 1.10,2013-10-26 16:03:00,
2013-10-26 12:18:00,58.3,43.0,30.27,NW,310,4.0,12.0,58,0.00,,,0.00,weatherlink.com 1.10,2013-10-26 16:18:00,
2013-10-26 12:33:00,58.9,43.0,30.26,NNW,330,2.0,12.0,56,0.00,,,0.00,weatherlink.com 1.10,2013-10-26 16:33:00,
2013-10-26 12:48:00,59.1,43.0,30.25,WNW,302,5.0,12.0,55,0.00,,,0.00,weatherlink.com 1.10,2013-10-26 16:48:00,
2013-10-26 13:03:00,60.1,44.0,30.25,NW,309,3.0,7.0,55,0.00,,,0.00,weatherlink.com 1.10,2013-10-26 17:03:00,
2013-10-26 13:18:00,60.5,43.0,30.24,NNW,347,3.0,11.0,53,0.00,,,0.00,weatherlink.com 1.10,2013-10-26 17:18:00,
2013-10-26 13:33:00,60.4,42.0,30.23,NE,43,7.0,7.0,52,0.00,,,0.00,weatherlink.com 1.10,2013-10-26 17:33:00,
2013-10-26 13:49:00,60.4,43.0,30.22,ENE,58,0.0,8.0,54,0.00,,,0.00,weatherlink.com 1.10,2013-10-26 17:49:00,
2013-10-26 14:04:00,60.4,43.0,30.21,NNE,16,5.0,9.0,53,0.00,,,0.00,weatherlink.com 1.10,2013-10-26 18:04:00,
2013-10-26 14:19:00,61.1,43.0,30.20,West,275,3.0,8.0,52,0.00,,,0.00,weatherlink.com 1.10,2013-10-26 18:19:00,
2013-10-26 14:34:00,61.5,44.0,30.20,NNW,327,5.0,8.0,54,0.00,,,0.00,weatherlink.com 1.10,2013-10-26 18:34:00,
2013-10-26 14:49:00,61.4,44.0,30.19,WSW,240,3.0,7.0,53,0.00,,,0.00,weatherlink.com 1.10,2013-10-26 18:49:00,
2013-10-26 15:04:00,61.9,44.0,30.18,SW,234,3.0,5.0,53,0.00,,,0.00,weatherlink.com 1.10,2013-10-26 19:04:00,
2013-10-26 15:19:00,61.2,45.0,30.18,WNW,283,0.0,5.0,56,0.00,,,0.00,weatherlink.com 1.10,2013-10-26 19:19:00,
2013-10-26 15:34:00,61.5,45.0,30.18,WSW,244,2.0,4.0,56,0.00,,,0.00,weatherlink.com 1.10,2013-10-26 19:34:00,
2013-10-26 15:49:00,61.0,46.0,30.17,WNW,287,2.0,4.0,59,0.00,,,0.00,weatherlink.com 1.10,2013-10-26 19:49:00,
2013-10-26 16:04:00,60.9,46.0,30.17,West,268,2.0,3.0,59,0.00,,,0.00,weatherlink.com 1.10,2013-10-26 20:04:00,
2013-10-26 16:19:00,61.2,47.0,30.17,West,265,2.0,3.0,60,0.00,,,0.00,weatherlink.com 1.10,2013-10-26 20:19:00,
2013-10-26 16:34:00,61.0,47.0,30.16,SW,214,3.0,6.0,60,0.00,,,0.00,weatherlink.com 1.10,2013-10-26 20:34:00,
2013-10-26 16:49:00,61.7,47.0,30.16,WSW,239,2.0,8.0,58,0.00,,,0.00,weatherlink.com 1.10,2013-10-26 20:49:00,
2013-10-26 17:04:00,62.1,46.0,30.15,SW,236,6.0,8.0,57,0.00,,,0.00,weatherlink.com 1.10,2013-10-26 21:04:00,
2013-10-26 17:19:00,61.4,47.0,30.15,NW,320,0.0,5.0,60,0.00,,,0.00,weatherlink.com 1.10,2013-10-26 21:19:00,
2013-10-26 17:34:00,60.4,48.0,30.14,SW,225,1.0,6.0,64,0.00,,,0.00,weatherlink.com 1.10,2013-10-26 21:34:00,
2013-10-26 17:49:00,60.1,48.0,30.14,SW,228,3.0,7.0,64,0.00,,,0.00,weatherlink.com 1.10,2013-10-26 21:49:00,
2013-10-26 18:04:00,59.3,48.0,30.14,WSW,239,2.0,5.0,67,0.00,,,0.00,weatherlink.com 1.10,2013-10-26 22:04:00,
2013-10-26 18:19:00,58.0,48.0,30.14,WSW,246,0.0,3.0,70,0.00,,,0.00,weatherlink.com 1.10,2013-10-26 22:19:00,
2013-10-26 18:34:00,56.8,48.0,30.14,WSW,248,1.0,1.0,73,0.00,,,0.00,weatherlink.com 1.10,2013-10-26 22:34:00,
2013-10-26 18:49:00,56.3,48.0,30.13,West,264,0.0,1.0,74,0.00,,,0.00,weatherlink.com 1.10,2013-10-26 22:49:00,
2013-10-26 19:04:00,56.1,48.0,30.13,West,264,0.0,0.0,74,0.00,,,0.00,weatherlink.com 1.10,2013-10-26 23:04:00,
2013-10-26 19:19:00,55.1,48.0,30.13,West,264,0.0,0.0,76,0.00,,,0.00,weatherlink.com 1.10,2013-10-26 23:19:00,
2013-10-26 19:34:00,54.7,48.0,30.13,West,271,0.0,1.0,78,0.00,,,0.00,weatherlink.com 1.10,2013-10-26 23:34:00,
2013-10-26 19:49:00,54.4,48.0,30.13,West,276,1.0,2.0,79,0.00,,,0.00,weatherlink.com 1.10,2013-10-26 23:49:00,
2013-10-26 20:04:00,55.2,48.0,30.13,West,274,1.0,1.0,78,0.00,,,0.00,weatherlink.com 1.10,2013-10-27 00:04:00,
2013-10-26 20:19:00,55.2,48.0,30.13,West,275,0.0,2.0,78,0.00,,,0.00,weatherlink.com 1.10,2013-10-27 00:19:00,
2013-10-26 20:34:00,54.3,48.0,30.14,West,277,1.0,2.0,80,0.00,,,0.00,weatherlink.com 1.10,2013-10-27 00:34:00,
2013-10-26 20:49:00,54.1,49.0,30.14,West,277,1.0,2.0,82,0.00,,,0.00,weatherlink.com 1.10,2013-10-27 00:49:00,
2013-10-26 21:04:00,53.6,48.0,30.14,West,277,0.0,1.0,81,0.00,,,0.00,weatherlink.com 1.10,2013-10-27 01:04:00,
2013-10-26 21:19:00,53.1,48.0,30.14,West,277,0.0,1.0,82,0.00,,,0.00,weatherlink.com 1.10,2013-10-27 01:19:00,
2013-10-26 21:34:00,52.8,47.0,30.14,West,277,1.0,2.0,81,0.00,,,0.00,weatherlink.com 1.10,2013-10-27 01:34:00,
2013-10-26 21:49:00,53.2,47.0,30.14,West,274,1.0,2.0,80,0.00,,,0.00,weatherlink.com 1.10,2013-10-27 01:49:00,
2013-10-26 22:04:00,53.0,46.0,30.14,West,265,1.0,3.0,77,0.00,,,0.00,weatherlink.com 1.10,2013-10-27 02:04:00,
2013-10-26 22:19:00,52.9,45.0,30.14,NW,311,1.0,3.0,74,0.00,,,0.00,weatherlink.com 1.10,2013-10-27 02:19:00,
2013-10-26 22:34:00,52.6,44.0,30.14,West,263,2.0,3.0,73,0.00,,,0.00,weatherlink.com 1.10,2013-10-27 02:34:00,
2013-10-26 22:49:00,52.2,43.0,30.13,West,264,1.0,2.0,72,0.00,,,0.00,weatherlink.com 1.10,2013-10-27 02:49:00,
2013-10-26 23:04:00,52.0,43.0,30.13,West,273,1.0,4.0,71,0.00,,,0.00,weatherlink.com 1.10,2013-10-27 03:04:00,
2013-10-26 23:19:00,51.7,43.0,30.13,West,274,1.0,2.0,71,0.00,,,0.00,weatherlink.com 1.10,2013-10-27 03:19:00,
2013-10-26 23:34:00,51.7,43.0,30.13,West,269,3.0,3.0,71,0.00,,,0.00,weatherlink.com 1.10,2013-10-27 03:34:00,
2013-10-26 23:49:00,52.0,43.0,30.13,WNW,282,1.0,5.0,71,0.00,,,0.00,weatherlink.com 1.10,2013-10-27 03:49:00,